KL942 EGPF-EHAM
Flight info
| Callsign | KL942 |
|---|---|
| Flight time | N/A |
| Altitude | 39000 |
| Route | NORBO Y96 HAVEN DCT ERKIT N110 DOLAS L603 LAMSO |
| Aircraft | B739/M-SDE2E3FGHIRWXY/LB1 |
Departure
| Time | 2026-05-06 17:48 |
|---|---|
| Airport | Glasgow Airport (EGPF) |
Arrival
| Time | N/A |
|---|---|
| Airport | Amsterdam Airport Schiphol (EHAM) |
| Time | Latitude | Longitude | Altitude | Speed | Heading |
|---|---|---|---|---|---|
| 2026-05-06 17:12 | 55.86517 | -4.43675 | 28 ft | 0 kts | 253° |
| 2026-05-06 17:36 | 55.86519 | -4.43662 | 47 ft | 4 kts | 255° |
| 2026-05-06 17:36 | 55.86524 | -4.43616 | 28 ft | 4 kts | 264° |
| 2026-05-06 17:37 | 55.86525 | -4.43568 | 28 ft | 4 kts | 278° |
| 2026-05-06 17:37 | 55.86517 | -4.43525 | 28 ft | 4 kts | 310° |
| 2026-05-06 17:37 | 55.86505 | -4.43508 | 28 ft | 0 kts | 344° |
| 2026-05-06 17:42 | 55.86511 | -4.43511 | 28 ft | 4 kts | 343° |
| 2026-05-06 17:42 | 55.86545 | -4.43529 | 28 ft | 6 kts | 343° |
| 2026-05-06 17:43 | 55.86583 | -4.43548 | 28 ft | 6 kts | 343° |
| 2026-05-06 17:43 | 55.86622 | -4.43569 | 28 ft | 7 kts | 343° |
| 2026-05-06 17:43 | 55.86688 | -4.43601 | 28 ft | 10 kts | 346° |
| 2026-05-06 17:43 | 55.86736 | -4.43698 | 28 ft | 12 kts | 269° |
| 2026-05-06 17:44 | 55.86698 | -4.43822 | 28 ft | 12 kts | 229° |
| 2026-05-06 17:44 | 55.86641 | -4.43925 | 28 ft | 11 kts | 226° |
| 2026-05-06 17:44 | 55.86589 | -4.44026 | 28 ft | 11 kts | 227° |
| 2026-05-06 17:44 | 55.86535 | -4.44128 | 28 ft | 12 kts | 224° |
| 2026-05-06 17:45 | 55.86473 | -4.44240 | 28 ft | 13 kts | 226° |
| 2026-05-06 17:45 | 55.86414 | -4.44352 | 28 ft | 12 kts | 226° |
| 2026-05-06 17:45 | 55.86356 | -4.44461 | 28 ft | 12 kts | 226° |
| 2026-05-06 17:45 | 55.86316 | -4.44537 | 28 ft | 7 kts | 226° |
| 2026-05-06 17:46 | 55.86282 | -4.44600 | 28 ft | 7 kts | 226° |
| 2026-05-06 17:46 | 55.86254 | -4.44670 | 28 ft | 7 kts | 257° |
| 2026-05-06 17:46 | 55.86268 | -4.44732 | 28 ft | 0 kts | 306° |
| 2026-05-06 17:47 | 55.86286 | -4.44769 | 28 ft | 8 kts | 315° |
| 2026-05-06 17:47 | 55.86299 | -4.44792 | 28 ft | 0 kts | 315° |
| 2026-05-06 17:47 | 55.86314 | -4.44818 | 28 ft | 10 kts | 315° |
| 2026-05-06 17:47 | 55.86387 | -4.44826 | 28 ft | 12 kts | 29° |
| 2026-05-06 17:48 | 55.86502 | -4.44621 | 28 ft | 49 kts | 46° |
| 2026-05-06 17:48 | 55.86925 | -4.43833 | 28 ft | 123 kts | 46° |
| 2026-05-06 17:48 | 55.87653 | -4.42482 | 123 ft | 169 kts | 48° |
| 2026-05-06 17:48 | 55.88461 | -4.40981 | 863 ft | 169 kts | 48° |
| 2026-05-06 17:49 | 55.89287 | -4.39416 | 1572 ft | 178 kts | 49° |
| 2026-05-06 17:49 | 55.90186 | -4.37795 | 2171 ft | 191 kts | 46° |
| 2026-05-06 17:49 | 55.91205 | -4.36108 | 2683 ft | 207 kts | 44° |
| 2026-05-06 17:49 | 55.92274 | -4.34350 | 3263 ft | 216 kts | 46° |
| 2026-05-06 17:50 | 55.93341 | -4.32461 | 4013 ft | 213 kts | 47° |
| 2026-05-06 17:50 | 55.94569 | -4.30910 | 4528 ft | 232 kts | 16° |
| 2026-05-06 17:50 | 55.96244 | -4.31024 | 4807 ft | 258 kts | 336° |
| 2026-05-06 17:50 | 55.97672 | -4.33017 | 5411 ft | 265 kts | 305° |
| 2026-05-06 17:51 | 55.98489 | -4.35969 | 6244 ft | 266 kts | 282° |
| 2026-05-06 17:51 | 55.98522 | -4.39230 | 7139 ft | 263 kts | 255° |
| 2026-05-06 17:51 | 55.97755 | -4.42138 | 7956 ft | 266 kts | 230° |
| 2026-05-06 17:51 | 55.96287 | -4.44135 | 8777 ft | 269 kts | 204° |
| 2026-05-06 17:52 | 55.94431 | -4.44761 | 9580 ft | 278 kts | 178° |
| 2026-05-06 17:52 | 55.92552 | -4.43809 | 10301 ft | 288 kts | 152° |
| 2026-05-06 17:52 | 55.91035 | -4.41492 | 11027 ft | 296 kts | 131° |
| 2026-05-06 17:52 | 55.89878 | -4.38412 | 11761 ft | 302 kts | 122° |
| 2026-05-06 17:53 | 55.88858 | -4.35092 | 12533 ft | 308 kts | 120° |
| 2026-05-06 17:53 | 55.87858 | -4.31670 | 13326 ft | 313 kts | 119° |
| 2026-05-06 17:53 | 55.87190 | -4.29383 | 13855 ft | 316 kts | 120° |
| 2026-05-06 17:53 | 55.86157 | -4.25884 | 14581 ft | 321 kts | 120° |
| 2026-05-06 17:54 | 55.85100 | -4.22359 | 15336 ft | 324 kts | 120° |
| 2026-05-06 17:54 | 55.83628 | -4.17522 | 15802 ft | 350 kts | 121° |
| 2026-05-06 17:54 | 55.82819 | -4.14893 | 15925 ft | 365 kts | 121° |
| 2026-05-06 17:54 | 55.81577 | -4.10879 | 16300 ft | 380 kts | 121° |
| 2026-05-06 17:55 | 55.80288 | -4.06727 | 16970 ft | 385 kts | 121° |
| 2026-05-06 17:55 | 55.78983 | -4.02537 | 17722 ft | 389 kts | 121° |
| 2026-05-06 17:55 | 55.77659 | -3.98300 | 18413 ft | 394 kts | 121° |
| 2026-05-06 17:55 | 55.76314 | -3.94005 | 19016 ft | 399 kts | 121° |
| 2026-05-06 17:56 | 55.74948 | -3.89656 | 19648 ft | 403 kts | 121° |
| 2026-05-06 17:56 | 55.73573 | -3.85287 | 20267 ft | 408 kts | 121° |
| 2026-05-06 17:56 | 55.72198 | -3.80924 | 20869 ft | 413 kts | 121° |
| 2026-05-06 17:56 | 55.70785 | -3.76450 | 21474 ft | 417 kts | 121° |
| 2026-05-06 17:57 | 55.69355 | -3.71931 | 22070 ft | 422 kts | 121° |
| 2026-05-06 17:57 | 55.67909 | -3.67370 | 22660 ft | 426 kts | 121° |
| 2026-05-06 17:57 | 55.66443 | -3.62756 | 23256 ft | 431 kts | 121° |
| 2026-05-06 17:57 | 55.64962 | -3.58103 | 23794 ft | 435 kts | 120° |
| 2026-05-06 17:58 | 55.63482 | -3.53462 | 24300 ft | 438 kts | 120° |
| 2026-05-06 17:58 | 55.61973 | -3.48736 | 24812 ft | 441 kts | 120° |
| 2026-05-06 17:58 | 55.60451 | -3.43982 | 25327 ft | 444 kts | 120° |
| 2026-05-06 17:58 | 55.58918 | -3.39204 | 25820 ft | 447 kts | 120° |
| 2026-05-06 17:59 | 55.57391 | -3.34452 | 26306 ft | 451 kts | 120° |
| 2026-05-06 17:59 | 55.55841 | -3.29637 | 26902 ft | 450 kts | 120° |
| 2026-05-06 17:59 | 55.54288 | -3.24824 | 27612 ft | 448 kts | 120° |
| 2026-05-06 17:59 | 55.52745 | -3.20052 | 28324 ft | 445 kts | 120° |
| 2026-05-06 18:00 | 55.51207 | -3.15303 | 28955 ft | 445 kts | 119° |
| 2026-05-06 18:00 | 55.49665 | -3.10548 | 29548 ft | 445 kts | 119° |
| 2026-05-06 18:00 | 55.48125 | -3.05815 | 30197 ft | 444 kts | 119° |
| 2026-05-06 18:00 | 55.46541 | -3.01221 | 30704 ft | 443 kts | 125° |
| 2026-05-06 18:01 | 55.44589 | -2.97001 | 31165 ft | 444 kts | 135° |
| 2026-05-06 18:01 | 55.42323 | -2.93289 | 31621 ft | 444 kts | 138° |
| 2026-05-06 18:01 | 55.40007 | -2.89676 | 32084 ft | 444 kts | 139° |
| 2026-05-06 18:01 | 55.37675 | -2.86079 | 32536 ft | 445 kts | 138° |
| 2026-05-06 18:02 | 55.35350 | -2.82491 | 33013 ft | 444 kts | 138° |
| 2026-05-06 18:02 | 55.33027 | -2.78887 | 33487 ft | 443 kts | 137° |
| 2026-05-06 18:02 | 55.30745 | -2.75329 | 33932 ft | 443 kts | 137° |
| 2026-05-06 18:02 | 55.28439 | -2.71724 | 34300 ft | 443 kts | 137° |
| 2026-05-06 18:03 | 55.26144 | -2.68128 | 34726 ft | 440 kts | 138° |
| 2026-05-06 18:03 | 55.23867 | -2.64563 | 35178 ft | 438 kts | 138° |
| 2026-05-06 18:03 | 55.21598 | -2.61012 | 35572 ft | 436 kts | 139° |
| 2026-05-06 18:03 | 55.19323 | -2.57459 | 35914 ft | 436 kts | 139° |
| 2026-05-06 18:04 | 55.17056 | -2.53923 | 36266 ft | 434 kts | 139° |
| 2026-05-06 18:04 | 55.14827 | -2.50453 | 36633 ft | 433 kts | 139° |
| 2026-05-06 18:04 | 55.12569 | -2.46942 | 36837 ft | 436 kts | 140° |
| 2026-05-06 18:04 | 55.10280 | -2.43392 | 36874 ft | 443 kts | 140° |
| 2026-05-06 18:05 | 55.05600 | -2.36151 | 37012 ft | 454 kts | 140° |
| 2026-05-06 18:05 | 55.00793 | -2.28737 | 37129 ft | 465 kts | 140° |
| 2026-05-06 18:06 | 54.95908 | -2.21226 | 37271 ft | 475 kts | 140° |
| 2026-05-06 18:06 | 54.93408 | -2.17392 | 37422 ft | 477 kts | 140° |
| 2026-05-06 18:06 | 54.90914 | -2.13572 | 37696 ft | 477 kts | 140° |
| 2026-05-06 18:07 | 54.88432 | -2.09777 | 38075 ft | 474 kts | 140° |
| 2026-05-06 18:07 | 54.85956 | -2.05998 | 38394 ft | 473 kts | 140° |
| 2026-05-06 18:07 | 54.83483 | -2.02230 | 38633 ft | 473 kts | 141° |
| 2026-05-06 18:07 | 54.81037 | -1.98510 | 38830 ft | 473 kts | 141° |
| 2026-05-06 18:08 | 54.78565 | -1.94758 | 39006 ft | 472 kts | 141° |
| 2026-05-06 18:08 | 54.76080 | -1.90993 | 39033 ft | 475 kts | 141° |
| 2026-05-06 18:08 | 54.71091 | -1.83452 | 39042 ft | 473 kts | 141° |
| 2026-05-06 18:09 | 54.66179 | -1.76051 | 39048 ft | 470 kts | 141° |
| 2026-05-06 18:09 | 54.61256 | -1.68657 | 39049 ft | 467 kts | 141° |
| 2026-05-06 18:10 | 54.56340 | -1.61301 | 39048 ft | 466 kts | 141° |
| 2026-05-06 18:10 | 54.51435 | -1.53985 | 39052 ft | 466 kts | 141° |
| 2026-05-06 18:11 | 54.46545 | -1.46716 | 39049 ft | 466 kts | 141° |
| 2026-05-06 18:11 | 54.41623 | -1.39423 | 39051 ft | 468 kts | 141° |
| 2026-05-06 18:12 | 54.36675 | -1.32116 | 39053 ft | 469 kts | 141° |
| 2026-05-06 18:12 | 54.31736 | -1.24845 | 39055 ft | 471 kts | 141° |
| 2026-05-06 18:13 | 54.26747 | -1.17526 | 39046 ft | 472 kts | 141° |
| 2026-05-06 18:13 | 54.21747 | -1.10212 | 39050 ft | 473 kts | 141° |
| 2026-05-06 18:14 | 54.16735 | -1.02906 | 39053 ft | 473 kts | 141° |
| 2026-05-06 18:14 | 54.12084 | -0.96147 | 39048 ft | 473 kts | 141° |
| 2026-05-06 18:15 | 54.07107 | -0.88933 | 39056 ft | 472 kts | 141° |
| 2026-05-06 18:15 | 54.02079 | -0.81780 | 39049 ft | 471 kts | 145° |
| 2026-05-06 18:16 | 53.96728 | -0.75404 | 39058 ft | 469 kts | 148° |
| 2026-05-06 18:16 | 53.91328 | -0.69245 | 39050 ft | 468 kts | 148° |
| 2026-05-06 18:17 | 53.85949 | -0.63024 | 39056 ft | 467 kts | 147° |
| 2026-05-06 18:17 | 53.81249 | -0.57545 | 39059 ft | 467 kts | 147° |
| 2026-05-06 18:18 | 53.76028 | -0.51470 | 39063 ft | 466 kts | 147° |
| 2026-05-06 18:18 | 53.70665 | -0.45255 | 39074 ft | 466 kts | 147° |
| 2026-05-06 18:19 | 53.65302 | -0.39092 | 39087 ft | 472 kts | 148° |
| 2026-05-06 18:19 | 53.59844 | -0.32825 | 39076 ft | 475 kts | 145° |
| 2026-05-06 18:20 | 53.55118 | -0.25034 | 39074 ft | 479 kts | 128° |
| 2026-05-06 18:20 | 53.51146 | -0.16019 | 39060 ft | 479 kts | 127° |
| 2026-05-06 18:21 | 53.47187 | -0.07012 | 39060 ft | 478 kts | 128° |
| 2026-05-06 18:21 | 53.43187 | 0.01911 | 39053 ft | 477 kts | 128° |
| 2026-05-06 18:22 | 53.39201 | 0.10707 | 39046 ft | 476 kts | 128° |
| 2026-05-06 18:22 | 53.35189 | 0.19531 | 39042 ft | 475 kts | 128° |
| 2026-05-06 18:23 | 53.31184 | 0.28315 | 39040 ft | 474 kts | 129° |
| 2026-05-06 18:23 | 53.27180 | 0.37074 | 39032 ft | 474 kts | 129° |
| 2026-05-06 18:24 | 53.23170 | 0.45806 | 39030 ft | 473 kts | 129° |
| 2026-05-06 18:24 | 53.19147 | 0.54520 | 39026 ft | 473 kts | 129° |
| 2026-05-06 18:25 | 53.15145 | 0.63163 | 39024 ft | 473 kts | 129° |
| 2026-05-06 18:25 | 53.11109 | 0.71852 | 39025 ft | 473 kts | 129° |
| 2026-05-06 18:26 | 53.07073 | 0.80515 | 39020 ft | 473 kts | 129° |
| 2026-05-06 18:26 | 53.03059 | 0.89108 | 39018 ft | 473 kts | 129° |
| 2026-05-06 18:27 | 52.99196 | 0.97974 | 39006 ft | 475 kts | 120° |
| 2026-05-06 18:27 | 52.96821 | 1.08218 | 39005 ft | 477 kts | 102° |
| 2026-05-06 18:28 | 52.95592 | 1.19044 | 39013 ft | 477 kts | 101° |
| 2026-05-06 18:28 | 52.94405 | 1.29891 | 39011 ft | 478 kts | 101° |
| 2026-05-06 18:29 | 52.93168 | 1.40663 | 39022 ft | 478 kts | 102° |
| 2026-05-06 18:29 | 52.91886 | 1.51487 | 39016 ft | 478 kts | 102° |
| 2026-05-06 18:30 | 52.90588 | 1.62301 | 39010 ft | 478 kts | 102° |
| 2026-05-06 18:30 | 52.89280 | 1.73129 | 38684 ft | 477 kts | 102° |
| 2026-05-06 18:31 | 52.88631 | 1.78479 | 38397 ft | 470 kts | 102° |
| 2026-05-06 18:31 | 52.87987 | 1.83773 | 38108 ft | 467 kts | 102° |
| 2026-05-06 18:31 | 52.87351 | 1.88982 | 37844 ft | 467 kts | 102° |
| 2026-05-06 18:31 | 52.86703 | 1.94271 | 37569 ft | 467 kts | 102° |
| 2026-05-06 18:32 | 52.86052 | 1.99566 | 37294 ft | 467 kts | 102° |
| 2026-05-06 18:32 | 52.85408 | 2.04785 | 37028 ft | 468 kts | 102° |
| 2026-05-06 18:32 | 52.84754 | 2.10061 | 36455 ft | 468 kts | 103° |
| 2026-05-06 18:32 | 52.84102 | 2.15302 | 35748 ft | 460 kts | 103° |
| 2026-05-06 18:33 | 52.83459 | 2.20460 | 34930 ft | 458 kts | 103° |
| 2026-05-06 18:33 | 52.82810 | 2.25637 | 34128 ft | 463 kts | 103° |
| 2026-05-06 18:33 | 52.82372 | 2.29114 | 33447 ft | 468 kts | 103° |
| 2026-05-06 18:33 | 52.81703 | 2.34408 | 32485 ft | 472 kts | 103° |
| 2026-05-06 18:34 | 52.81029 | 2.39729 | 31540 ft | 474 kts | 103° |
| 2026-05-06 18:34 | 52.80127 | 2.46823 | 30242 ft | 476 kts | 103° |
| 2026-05-06 18:34 | 52.79646 | 2.50448 | 29478 ft | 477 kts | 104° |
| 2026-05-06 18:34 | 52.78808 | 2.55697 | 28239 ft | 479 kts | 107° |
| 2026-05-06 18:35 | 52.77852 | 2.61011 | 26959 ft | 483 kts | 108° |
| 2026-05-06 18:35 | 52.76851 | 2.66337 | 25658 ft | 487 kts | 108° |
| 2026-05-06 18:35 | 52.75840 | 2.71693 | 24589 ft | 486 kts | 108° |
| 2026-05-06 18:35 | 52.74849 | 2.77004 | 23763 ft | 479 kts | 108° |
| 2026-05-06 18:36 | 52.73900 | 2.82155 | 22921 ft | 472 kts | 108° |
| 2026-05-06 18:36 | 52.72961 | 2.87307 | 22077 ft | 464 kts | 108° |
| 2026-05-06 18:36 | 52.72037 | 2.92392 | 21175 ft | 459 kts | 108° |
| 2026-05-06 18:36 | 52.71124 | 2.97416 | 20262 ft | 455 kts | 107° |
| 2026-05-06 18:37 | 52.70220 | 3.02385 | 19468 ft | 449 kts | 108° |
| 2026-05-06 18:37 | 52.69325 | 3.07287 | 18662 ft | 444 kts | 107° |
| 2026-05-06 18:37 | 52.68444 | 3.12098 | 18327 ft | 431 kts | 107° |
| 2026-05-06 18:37 | 52.67593 | 3.16733 | 18186 ft | 429 kts | 108° |
| 2026-05-06 18:38 | 52.66711 | 3.21515 | 18001 ft | 441 kts | 108° |
| 2026-05-06 18:38 | 52.65810 | 3.26389 | 17218 ft | 439 kts | 108° |
| 2026-05-06 18:38 | 52.64932 | 3.31128 | 16282 ft | 425 kts | 108° |
| 2026-05-06 18:38 | 52.64086 | 3.35690 | 15408 ft | 417 kts | 107° |
| 2026-05-06 18:39 | 52.63242 | 3.40220 | 14540 ft | 411 kts | 107° |
| 2026-05-06 18:39 | 52.62403 | 3.44713 | 13693 ft | 410 kts | 107° |
| 2026-05-06 18:39 | 52.61565 | 3.49193 | 12875 ft | 407 kts | 107° |
| 2026-05-06 18:40 | 52.59938 | 3.57862 | 11869 ft | 387 kts | 107° |
| 2026-05-06 18:40 | 52.59147 | 3.62057 | 11362 ft | 381 kts | 107° |
| 2026-05-06 18:40 | 52.58365 | 3.66203 | 10856 ft | 376 kts | 107° |
| 2026-05-06 18:40 | 52.57599 | 3.70250 | 10369 ft | 372 kts | 107° |
| 2026-05-06 18:41 | 52.56831 | 3.74300 | 9924 ft | 367 kts | 107° |
| 2026-05-06 18:41 | 52.56074 | 3.78290 | 9500 ft | 364 kts | 107° |
| 2026-05-06 18:41 | 52.55323 | 3.82231 | 9071 ft | 360 kts | 107° |
| 2026-05-06 18:41 | 52.54579 | 3.86138 | 8644 ft | 355 kts | 107° |
| 2026-05-06 18:42 | 52.53845 | 3.89979 | 8238 ft | 350 kts | 106° |
| 2026-05-06 18:42 | 52.53119 | 3.93768 | 7813 ft | 345 kts | 106° |
| 2026-05-06 18:42 | 52.52235 | 3.97398 | 7377 ft | 342 kts | 121° |
| 2026-05-06 18:42 | 52.50790 | 4.00439 | 7041 ft | 332 kts | 128° |
| 2026-05-06 18:43 | 52.49331 | 4.03258 | 6962 ft | 314 kts | 128° |
| 2026-05-06 18:43 | 52.47955 | 4.05901 | 6937 ft | 296 kts | 128° |
| 2026-05-06 18:43 | 52.46659 | 4.08404 | 6936 ft | 280 kts | 128° |
| 2026-05-06 18:43 | 52.45419 | 4.10812 | 6939 ft | 274 kts | 128° |
| 2026-05-06 18:44 | 52.44189 | 4.13208 | 6943 ft | 274 kts | 128° |
| 2026-05-06 18:44 | 52.43789 | 4.13984 | 6952 ft | 274 kts | 128° |